sensor_id;sensor_type;location;lat;lon;timestamp;pressure;altitude;pressure_sealevel;temperature;humidity
46087;BME280;31824;49.648;8.640;2023-05-09T00:01:45;100586.44;;;15.32;100.00
46087;BME280;31824;49.648;8.640;2023-05-09T00:04:48;100583.56;;;15.29;100.00
46087;BME280;31824;49.648;8.640;2023-05-09T00:07:50;100583.56;;;15.29;100.00
46087;BME280;31824;49.648;8.640;2023-05-09T00:10:52;100586.22;;;15.29;100.00
46087;BME280;31824;49.648;8.640;2023-05-09T00:13:54;100584.34;;;15.28;100.00
46087;BME280;31824;49.648;8.640;2023-05-09T00:16:55;100585.53;;;15.32;100.00
46087;BME280;31824;49.648;8.640;2023-05-09T00:20:01;100588.69;;;15.38;100.00
46087;BME280;31824;49.648;8.640;2023-05-09T00:23:11;100585.47;;;15.42;100.00
46087;BME280;31824;49.648;8.640;2023-05-09T00:26:12;100589.81;;;15.42;100.00
46087;BME280;31824;49.648;8.640;2023-05-09T00:29:17;100581.66;;;15.39;100.00
46087;BME280;31824;49.648;8.640;2023-05-09T00:32:18;100576.34;;;15.39;100.00
46087;BME280;31824;49.648;8.640;2023-05-09T00:35:22;100574.50;;;15.38;100.00
46087;BME280;31824;49.648;8.640;2023-05-09T00:38:24;100564.47;;;15.33;100.00
46087;BME280;31824;49.648;8.640;2023-05-09T00:41:26;100561.66;;;15.20;100.00
46087;BME280;31824;49.648;8.640;2023-05-09T00:44:28;100555.44;;;15.19;100.00
46087;BME280;31824;49.648;8.640;2023-05-09T00:47:30;100557.41;;;15.22;100.00
46087;BME280;31824;49.648;8.640;2023-05-09T00:50:34;100557.19;;;15.19;100.00
46087;BME280;31824;49.648;8.640;2023-05-09T00:53:37;100554.56;;;15.31;100.00
46087;BME280;31824;49.648;8.640;2023-05-09T00:56:39;100557.72;;;15.37;100.00
46087;BME280;31824;49.648;8.640;2023-05-09T00:59:41;100548.72;;;15.35;100.00
46087;BME280;31824;49.648;8.640;2023-05-09T01:02:45;100544.75;;;15.30;100.00
46087;BME280;31824;49.648;8.640;2023-05-09T01:05:54;100539.19;;;15.15;100.00
46087;BME280;31824;49.648;8.640;2023-05-09T01:09:02;100543.09;;;15.08;100.00
46087;BME280;31824;49.648;8.640;2023-05-09T01:12:12;100545.78;;;15.20;100.00
46087;BME280;31824;49.648;8.640;2023-05-09T01:15:22;100537.91;;;15.10;100.00
46087;BME280;31824;49.648;8.640;2023-05-09T01:18:31;100539.00;;;15.24;100.00
46087;BME280;31824;49.648;8.640;2023-05-09T01:21:39;100537.38;;;15.26;100.00
46087;BME280;31824;49.648;8.640;2023-05-09T01:25:05;100533.94;;;15.27;100.00
46087;BME280;31824;49.648;8.640;2023-05-09T01:28:12;100533.72;;;15.24;100.00
46087;BME280;31824;49.648;8.640;2023-05-09T01:31:16;100522.91;;;15.32;100.00
46087;BME280;31824;49.648;8.640;2023-05-09T01:34:21;100528.47;;;15.35;100.00
46087;BME280;31824;49.648;8.640;2023-05-09T01:37:29;100525.72;;;15.46;100.00
46087;BME280;31824;49.648;8.640;2023-05-09T01:40:32;100523.31;;;15.49;100.00
46087;BME280;31824;49.648;8.640;2023-05-09T01:43:37;100519.03;;;15.39;100.00
46087;BME280;31824;49.648;8.640;2023-05-09T01:46:42;100506.34;;;15.35;100.00
46087;BME280;31824;49.648;8.640;2023-05-09T01:49:46;100500.94;;;15.33;100.00
46087;BME280;31824;49.648;8.640;2023-05-09T01:52:52;100510.06;;;15.37;100.00
46087;BME280;31824;49.648;8.640;2023-05-09T01:55:55;100504.31;;;15.43;100.00
46087;BME280;31824;49.648;8.640;2023-05-09T01:58:59;100503.41;;;15.42;100.00
46087;BME280;31824;49.648;8.640;2023-05-09T02:02:05;100497.84;;;15.27;100.00
46087;BME280;31824;49.648;8.640;2023-05-09T02:05:09;100497.22;;;15.19;100.00
46087;BME280;31824;49.648;8.640;2023-05-09T02:08:13;100492.28;;;15.24;100.00
46087;BME280;31824;49.648;8.640;2023-05-09T02:11:15;100499.88;;;15.19;100.00
46087;BME280;31824;49.648;8.640;2023-05-09T02:14:17;100496.44;;;15.21;100.00
46087;BME280;31824;49.648;8.640;2023-05-09T02:17:20;100496.31;;;15.31;100.00
46087;BME280;31824;49.648;8.640;2023-05-09T02:20:22;100492.88;;;15.32;100.00
46087;BME280;31824;49.648;8.640;2023-05-09T02:23:24;100492.22;;;15.34;100.00
46087;BME280;31824;49.648;8.640;2023-05-09T02:26:27;100487.38;;;15.29;100.00
46087;BME280;31824;49.648;8.640;2023-05-09T02:29:31;100491.59;;;15.27;100.00
46087;BME280;31824;49.648;8.640;2023-05-09T02:32:42;100487.19;;;15.15;100.00
46087;BME280;31824;49.648;8.640;2023-05-09T02:35:46;100479.09;;;15.02;100.00
46087;BME280;31824;49.648;8.640;2023-05-09T02:38:49;100476.88;;;14.96;100.00
46087;BME280;31824;49.648;8.640;2023-05-09T02:41:51;100475.81;;;14.94;100.00
46087;BME280;31824;49.648;8.640;2023-05-09T02:44:53;100479.41;;;14.95;100.00
46087;BME280;31824;49.648;8.640;2023-05-09T02:47:57;100477.16;;;14.77;100.00
46087;BME280;31824;49.648;8.640;2023-05-09T02:51:00;100482.94;;;14.51;100.00
46087;BME280;31824;49.648;8.640;2023-05-09T02:54:02;100473.38;;;14.31;100.00
46087;BME280;31824;49.648;8.640;2023-05-09T02:57:04;100471.31;;;14.16;100.00
46087;BME280;31824;49.648;8.640;2023-05-09T03:00:07;100474.28;;;13.99;100.00
46087;BME280;31824;49.648;8.640;2023-05-09T03:03:14;100472.69;;;14.01;100.00
46087;BME280;31824;49.648;8.640;2023-05-09T03:06:19;100463.22;;;13.82;100.00
46087;BME280;31824;49.648;8.640;2023-05-09T03:09:20;100468.03;;;13.76;100.00
46087;BME280;31824;49.648;8.640;2023-05-09T03:12:22;100469.06;;;13.68;100.00
46087;BME280;31824;49.648;8.640;2023-05-09T03:15:27;100460.63;;;13.62;100.00
46087;BME280;31824;49.648;8.640;2023-05-09T03:18:30;100456.41;;;13.64;100.00
46087;BME280;31824;49.648;8.640;2023-05-09T03:21:33;100457.75;;;13.59;100.00
46087;BME280;31824;49.648;8.640;2023-05-09T03:24:34;100459.59;;;13.49;100.00
46087;BME280;31824;49.648;8.640;2023-05-09T03:27:36;100460.00;;;13.44;100.00
46087;BME280;31824;49.648;8.640;2023-05-09T03:30:41;100457.09;;;13.41;100.00
46087;BME280;31824;49.648;8.640;2023-05-09T03:33:48;100455.09;;;13.28;100.00
46087;BME280;31824;49.648;8.640;2023-05-09T03:36:50;100445.19;;;13.15;100.00
46087;BME280;31824;49.648;8.640;2023-05-09T03:39:52;100447.47;;;13.21;100.00
46087;BME280;31824;49.648;8.640;2023-05-09T03:42:53;100453.53;;;13.20;100.00
46087;BME280;31824;49.648;8.640;2023-05-09T03:45:55;100451.03;;;13.31;100.00
46087;BME280;31824;49.648;8.640;2023-05-09T03:49:01;100449.94;;;13.29;100.00
46087;BME280;31824;49.648;8.640;2023-05-09T03:52:04;100440.06;;;13.47;100.00
46087;BME280;31824;49.648;8.640;2023-05-09T03:55:07;100444.66;;;13.29;100.00
46087;BME280;31824;49.648;8.640;2023-05-09T03:58:11;100450.34;;;13.24;100.00
46087;BME280;31824;49.648;8.640;2023-05-09T04:01:15;100453.50;;;13.30;100.00
46087;BME280;31824;49.648;8.640;2023-05-09T04:04:19;100458.53;;;13.47;100.00
46087;BME280;31824;49.648;8.640;2023-05-09T04:07:21;100452.72;;;13.51;100.00
46087;BME280;31824;49.648;8.640;2023-05-09T04:10:23;100467.13;;;13.55;100.00
46087;BME280;31824;49.648;8.640;2023-05-09T04:13:27;100463.66;;;13.77;100.00
46087;BME280;31824;49.648;8.640;2023-05-09T04:16:32;100459.56;;;13.80;100.00
46087;BME280;31824;49.648;8.640;2023-05-09T04:19:36;100451.22;;;13.86;100.00
46087;BME280;31824;49.648;8.640;2023-05-09T04:22:38;100455.56;;;13.85;100.00
46087;BME280;31824;49.648;8.640;2023-05-09T04:25:39;100456.09;;;13.92;100.00
46087;BME280;31824;49.648;8.640;2023-05-09T04:28:44;100453.03;;;13.97;100.00
46087;BME280;31824;49.648;8.640;2023-05-09T04:31:48;100457.34;;;14.07;100.00
46087;BME280;31824;49.648;8.640;2023-05-09T04:34:53;100454.91;;;14.21;100.00
46087;BME280;31824;49.648;8.640;2023-05-09T04:37:59;100459.84;;;14.16;100.00
46087;BME280;31824;49.648;8.640;2023-05-09T04:41:01;100456.22;;;14.26;100.00
46087;BME280;31824;49.648;8.640;2023-05-09T04:44:03;100447.84;;;14.42;100.00
46087;BME280;31824;49.648;8.640;2023-05-09T04:47:06;100447.16;;;14.44;100.00
46087;BME280;31824;49.648;8.640;2023-05-09T04:50:10;100442.91;;;14.46;100.00
46087;BME280;31824;49.648;8.640;2023-05-09T04:53:12;100434.66;;;14.53;100.00
46087;BME280;31824;49.648;8.640;2023-05-09T04:56:15;100442.31;;;14.61;100.00
46087;BME280;31824;49.648;8.640;2023-05-09T04:59:19;100444.09;;;14.72;100.00
46087;BME280;31824;49.648;8.640;2023-05-09T05:02:21;100444.34;;;14.75;100.00
46087;BME280;31824;49.648;8.640;2023-05-09T05:05:26;100431.97;;;14.86;100.00
46087;BME280;31824;49.648;8.640;2023-05-09T05:08:28;100433.50;;;14.94;100.00
46087;BME280;31824;49.648;8.640;2023-05-09T05:11:30;100428.25;;;15.06;100.00
46087;BME280;31824;49.648;8.640;2023-05-09T05:14:33;100435.44;;;15.19;100.00
46087;BME280;31824;49.648;8.640;2023-05-09T05:17:38;100430.94;;;15.18;100.00
46087;BME280;31824;49.648;8.640;2023-05-09T05:20:43;100428.41;;;15.19;100.00
46087;BME280;31824;49.648;8.640;2023-05-09T05:23:45;100429.81;;;15.26;100.00
46087;BME280;31824;49.648;8.640;2023-05-09T05:26:48;100431.81;;;15.52;100.00
46087;BME280;31824;49.648;8.640;2023-05-09T05:29:50;100429.72;;;15.48;100.00
46087;BME280;31824;49.648;8.640;2023-05-09T05:32:52;100429.53;;;15.57;100.00
46087;BME280;31824;49.648;8.640;2023-05-09T05:35:56;100427.69;;;15.56;100.00
46087;BME280;31824;49.648;8.640;2023-05-09T05:38:58;100419.84;;;15.69;100.00
46087;BME280;31824;49.648;8.640;2023-05-09T05:42:00;100417.69;;;15.88;100.00
46087;BME280;31824;49.648;8.640;2023-05-09T05:45:02;100409.97;;;15.91;100.00
46087;BME280;31824;49.648;8.640;2023-05-09T05:48:12;100411.44;;;15.99;100.00
46087;BME280;31824;49.648;8.640;2023-05-09T05:51:15;100414.56;;;16.05;100.00
46087;BME280;31824;49.648;8.640;2023-05-09T05:54:17;100408.91;;;16.12;100.00
46087;BME280;31824;49.648;8.640;2023-05-09T05:57:20;100411.75;;;16.27;100.00
46087;BME280;31824;49.648;8.640;2023-05-09T06:00:22;100400.94;;;16.24;100.00
46087;BME280;31824;49.648;8.640;2023-05-09T06:03:31;100402.16;;;16.41;100.00
46087;BME280;31824;49.648;8.640;2023-05-09T06:06:39;100406.06;;;16.46;100.00
46087;BME280;31824;49.648;8.640;2023-05-09T06:09:41;100406.78;;;16.32;100.00
46087;BME280;31824;49.648;8.640;2023-05-09T06:12:43;100418.06;;;16.41;100.00
46087;BME280;31824;49.648;8.640;2023-05-09T06:15:45;100407.34;;;16.40;100.00
46087;BME280;31824;49.648;8.640;2023-05-09T06:18:47;100407.13;;;16.48;100.00
46087;BME280;31824;49.648;8.640;2023-05-09T06:21:51;100402.75;;;16.37;100.00
46087;BME280;31824;49.648;8.640;2023-05-09T06:24:53;100397.59;;;16.64;100.00
46087;BME280;31824;49.648;8.640;2023-05-09T06:27:55;100395.69;;;16.75;100.00
46087;BME280;31824;49.648;8.640;2023-05-09T06:30:57;100393.09;;;16.88;100.00
46087;BME280;31824;49.648;8.640;2023-05-09T06:33:59;100399.38;;;16.77;100.00
46087;BME280;31824;49.648;8.640;2023-05-09T06:37:03;100392.78;;;16.58;100.00
46087;BME280;31824;49.648;8.640;2023-05-09T06:40:06;100390.81;;;16.56;100.00
46087;BME280;31824;49.648;8.640;2023-05-09T06:43:08;100384.81;;;16.58;100.00
46087;BME280;31824;49.648;8.640;2023-05-09T06:46:09;100381.19;;;16.69;100.00
46087;BME280;31824;49.648;8.640;2023-05-09T06:49:11;100380.34;;;16.82;100.00
46087;BME280;31824;49.648;8.640;2023-05-09T06:52:16;100377.09;;;16.86;100.00
46087;BME280;31824;49.648;8.640;2023-05-09T06:55:18;100378.78;;;16.98;100.00
46087;BME280;31824;49.648;8.640;2023-05-09T06:58:19;100377.78;;;16.84;100.00
46087;BME280;31824;49.648;8.640;2023-05-09T07:01:21;100368.06;;;16.84;100.00
46087;BME280;31824;49.648;8.640;2023-05-09T07:04:23;100363.69;;;17.10;100.00
46087;BME280;31824;49.648;8.640;2023-05-09T07:07:27;100348.19;;;17.30;100.00
46087;BME280;31824;49.648;8.640;2023-05-09T07:10:28;100356.19;;;17.43;100.00
46087;BME280;31824;49.648;8.640;2023-05-09T07:13:30;100351.69;;;17.29;100.00
46087;BME280;31824;49.648;8.640;2023-05-09T07:16:32;100355.97;;;17.27;100.00
46087;BME280;31824;49.648;8.640;2023-05-09T07:19:38;100349.59;;;16.98;100.00
46087;BME280;31824;49.648;8.640;2023-05-09T07:22:41;100356.03;;;17.01;100.00
46087;BME280;31824;49.648;8.640;2023-05-09T07:25:42;100354.00;;;17.11;100.00
46087;BME280;31824;49.648;8.640;2023-05-09T07:28:45;100338.09;;;17.24;100.00
46087;BME280;31824;49.648;8.640;2023-05-09T07:31:47;100333.09;;;17.29;100.00
46087;BME280;31824;49.648;8.640;2023-05-09T07:34:49;100322.47;;;17.55;100.00
46087;BME280;31824;49.648;8.640;2023-05-09T07:37:53;100330.66;;;17.45;100.00
46087;BME280;31824;49.648;8.640;2023-05-09T07:40:54;100320.34;;;17.23;100.00
46087;BME280;31824;49.648;8.640;2023-05-09T07:43:56;100319.31;;;17.21;100.00
46087;BME280;31824;49.648;8.640;2023-05-09T07:46:58;100322.38;;;17.27;100.00
46087;BME280;31824;49.648;8.640;2023-05-09T07:50:02;100329.53;;;17.15;100.00
46087;BME280;31824;49.648;8.640;2023-05-09T07:53:05;100318.41;;;17.20;100.00
46087;BME280;31824;49.648;8.640;2023-05-09T07:56:07;100323.59;;;17.32;100.00
46087;BME280;31824;49.648;8.640;2023-05-09T07:59:09;100321.16;;;17.35;100.00
46087;BME280;31824;49.648;8.640;2023-05-09T08:02:11;100319.19;;;17.73;100.00
46087;BME280;31824;49.648;8.640;2023-05-09T08:05:13;100311.44;;;17.76;100.00
46087;BME280;31824;49.648;8.640;2023-05-09T08:08:16;100309.50;;;17.60;100.00
46087;BME280;31824;49.648;8.640;2023-05-09T08:11:18;100302.59;;;17.49;100.00
46087;BME280;31824;49.648;8.640;2023-05-09T08:14:20;100303.16;;;17.45;100.00
46087;BME280;31824;49.648;8.640;2023-05-09T08:17:21;100295.53;;;17.49;100.00
46087;BME280;31824;49.648;8.640;2023-05-09T08:20:24;100293.25;;;17.55;100.00
46087;BME280;31824;49.648;8.640;2023-05-09T08:23:27;100280.56;;;17.65;100.00
46087;BME280;31824;49.648;8.640;2023-05-09T08:26:30;100278.34;;;17.58;100.00
46087;BME280;31824;49.648;8.640;2023-05-09T08:29:32;100270.00;;;18.07;100.00
46087;BME280;31824;49.648;8.640;2023-05-09T08:32:34;100259.03;;;18.59;100.00
46087;BME280;31824;49.648;8.640;2023-05-09T08:35:36;100261.19;;;18.94;100.00
46087;BME280;31824;49.648;8.640;2023-05-09T08:38:40;100260.84;;;19.03;100.00
46087;BME280;31824;49.648;8.640;2023-05-09T08:41:41;100261.72;;;19.33;100.00
46087;BME280;31824;49.648;8.640;2023-05-09T08:44:44;100258.44;;;19.22;100.00
46087;BME280;31824;49.648;8.640;2023-05-09T08:47:46;100251.66;;;19.13;100.00
46087;BME280;31824;49.648;8.640;2023-05-09T08:50:48;100258.47;;;18.64;100.00
46087;BME280;31824;49.648;8.640;2023-05-09T08:53:53;100259.22;;;18.77;100.00
46087;BME280;31824;49.648;8.640;2023-05-09T08:56:55;100256.84;;;19.41;100.00
46087;BME280;31824;49.648;8.640;2023-05-09T08:59:58;100250.28;;;19.51;100.00
46087;BME280;31824;49.648;8.640;2023-05-09T09:03:02;100246.06;;;19.54;100.00
46087;BME280;31824;49.648;8.640;2023-05-09T09:06:06;100239.06;;;19.56;100.00
46087;BME280;31824;49.648;8.640;2023-05-09T09:09:10;100242.47;;;19.85;100.00
46087;BME280;31824;49.648;8.640;2023-05-09T09:12:14;100242.31;;;19.82;100.00
46087;BME280;31824;49.648;8.640;2023-05-09T09:15:18;100235.88;;;20.10;100.00
46087;BME280;31824;49.648;8.640;2023-05-09T09:18:28;100229.16;;;19.85;100.00
46087;BME280;31824;49.648;8.640;2023-05-09T09:21:31;100226.19;;;19.96;100.00
46087;BME280;31824;49.648;8.640;2023-05-09T09:24:35;100216.84;;;19.87;100.00
46087;BME280;31824;49.648;8.640;2023-05-09T09:27:37;100216.94;;;19.74;100.00
46087;BME280;31824;49.648;8.640;2023-05-09T09:30:42;100211.47;;;19.39;100.00
46087;BME280;31824;49.648;8.640;2023-05-09T09:33:45;100207.56;;;19.49;100.00
46087;BME280;31824;49.648;8.640;2023-05-09T09:36:50;100205.34;;;19.88;100.00
46087;BME280;31824;49.648;8.640;2023-05-09T09:39:54;100196.72;;;19.30;100.00
46087;BME280;31824;49.648;8.640;2023-05-09T09:42:56;100197.34;;;19.26;100.00
46087;BME280;31824;49.648;8.640;2023-05-09T09:46:00;100194.00;;;18.98;100.00
46087;BME280;31824;49.648;8.640;2023-05-09T09:49:04;100190.69;;;19.02;100.00
46087;BME280;31824;49.648;8.640;2023-05-09T09:52:06;100184.56;;;19.35;100.00
46087;BME280;31824;49.648;8.640;2023-05-09T09:55:09;100179.50;;;20.04;100.00
46087;BME280;31824;49.648;8.640;2023-05-09T09:58:15;100180.50;;;19.89;100.00
46087;BME280;31824;49.648;8.640;2023-05-09T10:01:17;100170.34;;;20.32;100.00
46087;BME280;31824;49.648;8.640;2023-05-09T10:04:21;100167.88;;;20.02;100.00
46087;BME280;31824;49.648;8.640;2023-05-09T10:07:23;100160.75;;;20.19;100.00
46087;BME280;31824;49.648;8.640;2023-05-09T10:10:31;100156.25;;;20.69;100.00
46087;BME280;31824;49.648;8.640;2023-05-09T10:13:33;100150.63;;;19.95;100.00
46087;BME280;31824;49.648;8.640;2023-05-09T10:16:37;100157.84;;;20.49;100.00
46087;BME280;31824;49.648;8.640;2023-05-09T10:19:46;100145.16;;;20.27;100.00
46087;BME280;31824;49.648;8.640;2023-05-09T10:22:53;100143.16;;;20.57;100.00
46087;BME280;31824;49.648;8.640;2023-05-09T10:26:04;100137.38;;;21.56;100.00
46087;BME280;31824;49.648;8.640;2023-05-09T10:29:11;100136.69;;;21.24;100.00
46087;BME280;31824;49.648;8.640;2023-05-09T10:32:17;100126.53;;;20.97;100.00
46087;BME280;31824;49.648;8.640;2023-05-09T10:35:26;100113.72;;;21.28;100.00
46087;BME280;31824;49.648;8.640;2023-05-09T10:38:33;100114.84;;;20.77;100.00
46087;BME280;31824;49.648;8.640;2023-05-09T10:41:38;100120.28;;;20.44;100.00
46087;BME280;31824;49.648;8.640;2023-05-09T10:44:40;100100.81;;;20.81;100.00
46087;BME280;31824;49.648;8.640;2023-05-09T10:47:43;100093.81;;;21.21;100.00
46087;BME280;31824;49.648;8.640;2023-05-09T10:50:46;100092.09;;;20.85;100.00
46087;BME280;31824;49.648;8.640;2023-05-09T10:53:49;100084.72;;;20.80;100.00
46087;BME280;31824;49.648;8.640;2023-05-09T10:56:53;100073.19;;;20.99;100.00
46087;BME280;31824;49.648;8.640;2023-05-09T10:59:56;100070.19;;;21.11;100.00
46087;BME280;31824;49.648;8.640;2023-05-09T11:03:05;100059.53;;;21.50;100.00
46087;BME280;31824;49.648;8.640;2023-05-09T11:06:07;100049.09;;;21.54;100.00
46087;BME280;31824;49.648;8.640;2023-05-09T11:09:35;100052.09;;;22.22;100.00
46087;BME280;31824;49.648;8.640;2023-05-09T11:12:53;100043.59;;;22.12;100.00
46087;BME280;31824;49.648;8.640;2023-05-09T11:16:08;100030.44;;;21.75;100.00
46087;BME280;31824;49.648;8.640;2023-05-09T11:19:10;100033.06;;;21.54;100.00
46087;BME280;31824;49.648;8.640;2023-05-09T11:22:13;100025.50;;;21.85;100.00
46087;BME280;31824;49.648;8.640;2023-05-09T11:25:16;100026.06;;;21.58;100.00
46087;BME280;31824;49.648;8.640;2023-05-09T11:28:27;100022.50;;;22.19;100.00
46087;BME280;31824;49.648;8.640;2023-05-09T11:31:29;100022.44;;;22.18;100.00
46087;BME280;31824;49.648;8.640;2023-05-09T11:34:32;100022.59;;;22.86;100.00
46087;BME280;31824;49.648;8.640;2023-05-09T11:37:38;100012.06;;;22.68;100.00
46087;BME280;31824;49.648;8.640;2023-05-09T11:40:40;100002.06;;;21.79;100.00
46087;BME280;31824;49.648;8.640;2023-05-09T11:43:44;100004.81;;;21.81;100.00
46087;BME280;31824;49.648;8.640;2023-05-09T11:46:49;100002.09;;;21.02;100.00
46087;BME280;31824;49.648;8.640;2023-05-09T11:49:51;99997.59;;;20.64;100.00
46087;BME280;31824;49.648;8.640;2023-05-09T11:52:53;99994.25;;;20.50;100.00
46087;BME280;31824;49.648;8.640;2023-05-09T11:55:55;99992.72;;;20.37;100.00
46087;BME280;31824;49.648;8.640;2023-05-09T11:58:59;99984.00;;;20.41;100.00
46087;BME280;31824;49.648;8.640;2023-05-09T12:02:02;99982.31;;;20.79;100.00
46087;BME280;31824;49.648;8.640;2023-05-09T12:05:09;99969.81;;;20.60;100.00
46087;BME280;31824;49.648;8.640;2023-05-09T12:08:12;99962.47;;;20.92;100.00
46087;BME280;31824;49.648;8.640;2023-05-09T12:11:14;99963.56;;;20.96;100.00
46087;BME280;31824;49.648;8.640;2023-05-09T12:14:27;99949.47;;;20.80;100.00
46087;BME280;31824;49.648;8.640;2023-05-09T12:17:29;99957.50;;;21.00;100.00
46087;BME280;31824;49.648;8.640;2023-05-09T12:20:46;99948.44;;;20.96;100.00
46087;BME280;31824;49.648;8.640;2023-05-09T12:23:48;99942.53;;;20.84;100.00
46087;BME280;31824;49.648;8.640;2023-05-09T12:26:55;99938.38;;;20.90;100.00
46087;BME280;31824;49.648;8.640;2023-05-09T12:30:00;99929.59;;;21.13;100.00
46087;BME280;31824;49.648;8.640;2023-05-09T12:33:02;99932.19;;;21.11;100.00
46087;BME280;31824;49.648;8.640;2023-05-09T12:36:06;99921.28;;;21.06;100.00
46087;BME280;31824;49.648;8.640;2023-05-09T12:39:09;99909.69;;;21.25;100.00
46087;BME280;31824;49.648;8.640;2023-05-09T12:42:11;99911.31;;;21.22;100.00
46087;BME280;31824;49.648;8.640;2023-05-09T12:45:15;99905.81;;;21.38;100.00
46087;BME280;31824;49.648;8.640;2023-05-09T12:48:21;99901.53;;;22.26;100.00
46087;BME280;31824;49.648;8.640;2023-05-09T12:51:23;99895.69;;;22.14;100.00
46087;BME280;31824;49.648;8.640;2023-05-09T12:54:28;99887.47;;;22.77;100.00
46087;BME280;31824;49.648;8.640;2023-05-09T12:57:30;99883.66;;;22.25;100.00
46087;BME280;31824;49.648;8.640;2023-05-09T13:00:41;99876.13;;;21.94;100.00
46087;BME280;31824;49.648;8.640;2023-05-09T13:03:49;99875.00;;;22.10;100.00
46087;BME280;31824;49.648;8.640;2023-05-09T13:06:52;99869.03;;;22.17;100.00
46087;BME280;31824;49.648;8.640;2023-05-09T13:09:56;99863.75;;;22.19;100.00
46087;BME280;31824;49.648;8.640;2023-05-09T13:12:58;99858.84;;;21.86;100.00
46087;BME280;31824;49.648;8.640;2023-05-09T13:16:02;99851.88;;;22.12;100.00
46087;BME280;31824;49.648;8.640;2023-05-09T13:19:05;99850.28;;;22.38;100.00
46087;BME280;31824;49.648;8.640;2023-05-09T13:22:07;99848.63;;;22.42;100.00
46087;BME280;31824;49.648;8.640;2023-05-09T13:25:15;99841.34;;;22.38;100.00
46087;BME280;31824;49.648;8.640;2023-05-09T13:28:17;99831.56;;;22.63;100.00
46087;BME280;31824;49.648;8.640;2023-05-09T13:31:21;99827.00;;;22.36;100.00
46087;BME280;31824;49.648;8.640;2023-05-09T13:34:23;99811.84;;;22.36;100.00
46087;BME280;31824;49.648;8.640;2023-05-09T13:37:25;99821.38;;;22.30;100.00
46087;BME280;31824;49.648;8.640;2023-05-09T13:40:29;99813.28;;;22.28;100.00
46087;BME280;31824;49.648;8.640;2023-05-09T13:43:31;99806.63;;;21.73;100.00
46087;BME280;31824;49.648;8.640;2023-05-09T13:46:34;99793.34;;;21.53;100.00
46087;BME280;31824;49.648;8.640;2023-05-09T13:49:38;99800.13;;;21.25;100.00
46087;BME280;31824;49.648;8.640;2023-05-09T13:52:40;99790.06;;;21.39;100.00
46087;BME280;31824;49.648;8.640;2023-05-09T13:55:41;99789.66;;;21.51;100.00
46087;BME280;31824;49.648;8.640;2023-05-09T13:58:45;99798.31;;;21.65;100.00
46087;BME280;31824;49.648;8.640;2023-05-09T14:01:49;99787.47;;;21.62;100.00
46087;BME280;31824;49.648;8.640;2023-05-09T14:04:50;99783.53;;;22.20;100.00
46087;BME280;31824;49.648;8.640;2023-05-09T14:07:53;99790.09;;;23.00;100.00
46087;BME280;31824;49.648;8.640;2023-05-09T14:10:55;99785.50;;;22.47;100.00
46087;BME280;31824;49.648;8.640;2023-05-09T14:13:57;99782.59;;;22.65;100.00
46087;BME280;31824;49.648;8.640;2023-05-09T14:17:00;99774.97;;;23.02;100.00
46087;BME280;31824;49.648;8.640;2023-05-09T14:20:02;99770.69;;;22.81;100.00
46087;BME280;31824;49.648;8.640;2023-05-09T14:23:04;99767.13;;;22.11;100.00
46087;BME280;31824;49.648;8.640;2023-05-09T14:26:06;99756.41;;;22.56;100.00
46087;BME280;31824;49.648;8.640;2023-05-09T14:29:09;99754.84;;;23.13;100.00
46087;BME280;31824;49.648;8.640;2023-05-09T14:32:12;99747.84;;;22.67;100.00
46087;BME280;31824;49.648;8.640;2023-05-09T14:35:15;99738.31;;;22.75;100.00
46087;BME280;31824;49.648;8.640;2023-05-09T14:38:17;99740.84;;;22.23;100.00
46087;BME280;31824;49.648;8.640;2023-05-09T14:41:19;99727.03;;;21.88;100.00
46087;BME280;31824;49.648;8.640;2023-05-09T14:44:22;99715.88;;;21.76;100.00
46087;BME280;31824;49.648;8.640;2023-05-09T14:47:27;99711.31;;;21.52;100.00
46087;BME280;31824;49.648;8.640;2023-05-09T14:50:29;99712.53;;;21.38;100.00
46087;BME280;31824;49.648;8.640;2023-05-09T14:53:31;99709.91;;;21.18;100.00
46087;BME280;31824;49.648;8.640;2023-05-09T14:56:35;99698.50;;;21.22;100.00
46087;BME280;31824;49.648;8.640;2023-05-09T14:59:37;99699.28;;;21.41;100.00
46087;BME280;31824;49.648;8.640;2023-05-09T15:02:41;99691.88;;;21.34;100.00
46087;BME280;31824;49.648;8.640;2023-05-09T15:05:43;99692.88;;;21.37;100.00
46087;BME280;31824;49.648;8.640;2023-05-09T15:08:45;99684.94;;;21.39;100.00
46087;BME280;31824;49.648;8.640;2023-05-09T15:11:48;99674.63;;;21.48;100.00
46087;BME280;31824;49.648;8.640;2023-05-09T15:14:50;99683.41;;;21.46;100.00
46087;BME280;31824;49.648;8.640;2023-05-09T15:17:56;99676.38;;;21.48;100.00
46087;BME280;31824;49.648;8.640;2023-05-09T15:20:58;99670.94;;;21.23;100.00
46087;BME280;31824;49.648;8.640;2023-05-09T15:24:00;99666.88;;;21.11;100.00
46087;BME280;31824;49.648;8.640;2023-05-09T15:27:03;99671.06;;;21.04;100.00
46087;BME280;31824;49.648;8.640;2023-05-09T15:30:06;99653.91;;;20.78;100.00
46087;BME280;31824;49.648;8.640;2023-05-09T15:33:09;99656.47;;;20.55;100.00
46087;BME280;31824;49.648;8.640;2023-05-09T15:36:12;99659.25;;;20.78;100.00
46087;BME280;31824;49.648;8.640;2023-05-09T15:39:14;99654.69;;;20.75;100.00
46087;BME280;31824;49.648;8.640;2023-05-09T15:42:16;99658.75;;;20.67;100.00
46087;BME280;31824;49.648;8.640;2023-05-09T15:45:19;99642.16;;;20.53;100.00
46087;BME280;31824;49.648;8.640;2023-05-09T15:48:22;99644.09;;;20.57;100.00
46087;BME280;31824;49.648;8.640;2023-05-09T15:51:25;99644.50;;;20.66;100.00